APN106 EPPO-EPSC
Flight info
| Callsign | APN106 |
|---|---|
| Flight time | 0h 23m |
| Altitude | 16000 |
| Route | XERBI L996 PIXOR DCT ZAWIK |
| Aircraft | A320/M-SDE3FGHIRWY/LB1 |
Departure
| Time | 2026-04-25 07:36 |
|---|---|
| Airport | Poznań-Ławica Airport (EPPO) |
Arrival
| Time | 2026-04-25 07:59 |
|---|---|
| Airport | Solidarity Szczecin–Goleniów Airport (EPSC) |
| Time | Latitude | Longitude | Altitude | Speed | Heading |
|---|---|---|---|---|---|
| 2026-04-25 07:20 | 52.41543 | 16.83324 | 0 ft | 0 kts | 192° |
| 2026-04-25 07:27 | 52.41558 | 16.83329 | 291 ft | 2 kts | 179° |
| 2026-04-25 07:27 | 52.41582 | 16.83322 | 249 ft | 4 kts | 154° |
| 2026-04-25 07:27 | 52.41595 | 16.83312 | 293 ft | 1 kts | 153° |
| 2026-04-25 07:28 | 52.41597 | 16.83311 | 292 ft | 0 kts | 153° |
| 2026-04-25 07:30 | 52.41594 | 16.83311 | 293 ft | 2 kts | 163° |
| 2026-04-25 07:30 | 52.41587 | 16.83326 | 293 ft | 3 kts | 118° |
| 2026-04-25 07:31 | 52.41582 | 16.83399 | 288 ft | 7 kts | 96° |
| 2026-04-25 07:31 | 52.41577 | 16.83473 | 288 ft | 6 kts | 96° |
| 2026-04-25 07:31 | 52.41572 | 16.83535 | 288 ft | 5 kts | 96° |
| 2026-04-25 07:31 | 52.41571 | 16.83555 | 288 ft | 5 kts | 96° |
| 2026-04-25 07:32 | 52.41568 | 16.83598 | 291 ft | 4 kts | 96° |
| 2026-04-25 07:32 | 52.41564 | 16.83669 | 288 ft | 8 kts | 95° |
| 2026-04-25 07:32 | 52.41557 | 16.83791 | 288 ft | 13 kts | 95° |
| 2026-04-25 07:32 | 52.41588 | 16.83918 | 288 ft | 12 kts | 49° |
| 2026-04-25 07:33 | 52.41644 | 16.83992 | 288 ft | 1 kts | 25° |
| 2026-04-25 07:34 | 52.41645 | 16.83993 | 288 ft | 1 kts | 24° |
| 2026-04-25 07:34 | 52.41668 | 16.84007 | 288 ft | 6 kts | 20° |
| 2026-04-25 07:34 | 52.41712 | 16.84032 | 290 ft | 8 kts | 20° |
| 2026-04-25 07:34 | 52.41782 | 16.84074 | 289 ft | 12 kts | 19° |
| 2026-04-25 07:35 | 52.41833 | 16.84020 | 289 ft | 0 kts | 292° |
| 2026-04-25 07:35 | 52.41845 | 16.83969 | 290 ft | 27 kts | 291° |
| 2026-04-25 07:35 | 52.41984 | 16.83260 | 287 ft | 101 kts | 287° |
| 2026-04-25 07:36 | 52.42242 | 16.81882 | 291 ft | 154 kts | 287° |
| 2026-04-25 07:36 | 52.42592 | 16.80034 | 582 ft | 178 kts | 288° |
| 2026-04-25 07:36 | 52.42991 | 16.78119 | 1369 ft | 178 kts | 289° |
| 2026-04-25 07:36 | 52.43422 | 16.76189 | 2053 ft | 188 kts | 289° |
| 2026-04-25 07:37 | 52.43844 | 16.74082 | 2323 ft | 206 kts | 286° |
| 2026-04-25 07:37 | 52.44238 | 16.71636 | 2550 ft | 239 kts | 283° |
| 2026-04-25 07:37 | 52.44664 | 16.68865 | 3146 ft | 255 kts | 286° |
| 2026-04-25 07:37 | 52.45181 | 16.66132 | 4329 ft | 250 kts | 288° |
| 2026-04-25 07:38 | 52.45725 | 16.63412 | 5290 ft | 253 kts | 289° |
| 2026-04-25 07:38 | 52.46279 | 16.60658 | 6217 ft | 256 kts | 289° |
| 2026-04-25 07:38 | 52.46831 | 16.57876 | 7154 ft | 258 kts | 289° |
| 2026-04-25 07:38 | 52.47375 | 16.55096 | 8047 ft | 260 kts | 290° |
| 2026-04-25 07:39 | 52.47924 | 16.52259 | 8962 ft | 262 kts | 290° |
| 2026-04-25 07:39 | 52.48552 | 16.49438 | 9812 ft | 264 kts | 299° |
| 2026-04-25 07:39 | 52.49507 | 16.46853 | 10536 ft | 271 kts | 307° |
| 2026-04-25 07:39 | 52.50610 | 16.44189 | 10822 ft | 294 kts | 307° |
| 2026-04-25 07:40 | 52.51801 | 16.41305 | 11175 ft | 313 kts | 307° |
| 2026-04-25 07:40 | 52.53032 | 16.38312 | 11844 ft | 319 kts | 306° |
| 2026-04-25 07:40 | 52.54282 | 16.35259 | 12554 ft | 325 kts | 306° |
| 2026-04-25 07:40 | 52.55548 | 16.32154 | 13262 ft | 329 kts | 306° |
| 2026-04-25 07:41 | 52.56824 | 16.29012 | 13955 ft | 333 kts | 306° |
| 2026-04-25 07:41 | 52.58103 | 16.25862 | 14616 ft | 337 kts | 306° |
| 2026-04-25 07:41 | 52.59412 | 16.22639 | 15257 ft | 342 kts | 306° |
| 2026-04-25 07:41 | 52.60743 | 16.19368 | 15776 ft | 346 kts | 307° |
| 2026-04-25 07:42 | 52.62081 | 16.16077 | 15910 ft | 347 kts | 306° |
| 2026-04-25 07:42 | 52.63458 | 16.12692 | 15949 ft | 362 kts | 306° |
| 2026-04-25 07:42 | 52.64866 | 16.09223 | 15948 ft | 365 kts | 306° |
| 2026-04-25 07:42 | 52.66272 | 16.05738 | 15947 ft | 366 kts | 306° |
| 2026-04-25 07:43 | 52.67677 | 16.02239 | 15948 ft | 366 kts | 306° |
| 2026-04-25 07:43 | 52.69084 | 15.98732 | 15948 ft | 366 kts | 306° |
| 2026-04-25 07:43 | 52.70474 | 15.95272 | 15947 ft | 366 kts | 307° |
| 2026-04-25 07:43 | 52.72057 | 15.92018 | 15947 ft | 363 kts | 316° |
| 2026-04-25 07:44 | 52.73976 | 15.89345 | 15947 ft | 361 kts | 327° |
| 2026-04-25 07:44 | 52.76165 | 15.87337 | 15948 ft | 360 kts | 337° |
| 2026-04-25 07:44 | 52.78455 | 15.85663 | 15949 ft | 360 kts | 337° |
| 2026-04-25 07:44 | 52.80738 | 15.83979 | 15950 ft | 360 kts | 336° |
| 2026-04-25 07:45 | 52.83024 | 15.82281 | 15951 ft | 360 kts | 336° |
| 2026-04-25 07:45 | 52.85299 | 15.80584 | 15992 ft | 358 kts | 336° |
| 2026-04-25 07:45 | 52.87567 | 15.78886 | 16001 ft | 357 kts | 336° |
| 2026-04-25 07:45 | 52.89832 | 15.77187 | 16002 ft | 357 kts | 336° |
| 2026-04-25 07:46 | 52.92061 | 15.75512 | 16002 ft | 357 kts | 336° |
| 2026-04-25 07:46 | 52.94323 | 15.73810 | 16002 ft | 357 kts | 336° |
| 2026-04-25 07:46 | 52.96585 | 15.72110 | 16002 ft | 357 kts | 336° |
| 2026-04-25 07:46 | 52.98843 | 15.70412 | 16002 ft | 357 kts | 336° |
| 2026-04-25 07:47 | 53.01096 | 15.68715 | 15997 ft | 350 kts | 336° |
| 2026-04-25 07:47 | 53.03265 | 15.67079 | 15861 ft | 336 kts | 336° |
| 2026-04-25 07:47 | 53.05373 | 15.65490 | 15528 ft | 330 kts | 336° |
| 2026-04-25 07:47 | 53.07450 | 15.63919 | 15090 ft | 326 kts | 336° |
| 2026-04-25 07:48 | 53.09506 | 15.62363 | 14631 ft | 324 kts | 336° |
| 2026-04-25 07:48 | 53.11527 | 15.60835 | 14167 ft | 322 kts | 336° |
| 2026-04-25 07:48 | 53.13560 | 15.59300 | 13710 ft | 320 kts | 336° |
| 2026-04-25 07:48 | 53.15577 | 15.57772 | 13259 ft | 317 kts | 336° |
| 2026-04-25 07:49 | 53.17579 | 15.56253 | 12799 ft | 315 kts | 336° |
| 2026-04-25 07:49 | 53.19562 | 15.54741 | 12318 ft | 313 kts | 335° |
| 2026-04-25 07:49 | 53.21530 | 15.53237 | 11760 ft | 308 kts | 335° |
| 2026-04-25 07:49 | 53.23453 | 15.51766 | 10988 ft | 301 kts | 335° |
| 2026-04-25 07:50 | 53.25362 | 15.50374 | 10112 ft | 298 kts | 341° |
| 2026-04-25 07:50 | 53.27402 | 15.49877 | 9228 ft | 298 kts | 1° |
| 2026-04-25 07:50 | 53.29457 | 15.50278 | 8352 ft | 297 kts | 5° |
| 2026-04-25 07:50 | 53.31464 | 15.50311 | 7482 ft | 291 kts | 350° |
| 2026-04-25 07:51 | 53.33384 | 15.49362 | 6602 ft | 287 kts | 330° |
| 2026-04-25 07:51 | 53.34940 | 15.47332 | 5717 ft | 285 kts | 309° |
| 2026-04-25 07:51 | 53.35869 | 15.44494 | 5264 ft | 269 kts | 288° |
| 2026-04-25 07:51 | 53.36389 | 15.41620 | 4939 ft | 252 kts | 287° |
| 2026-04-25 07:52 | 53.36897 | 15.38834 | 4384 ft | 248 kts | 287° |
| 2026-04-25 07:52 | 53.37400 | 15.36097 | 3834 ft | 244 kts | 288° |
| 2026-04-25 07:52 | 53.37971 | 15.33453 | 3281 ft | 239 kts | 298° |
| 2026-04-25 07:52 | 53.38860 | 15.31213 | 3079 ft | 222 kts | 303° |
| 2026-04-25 07:53 | 53.39685 | 15.29188 | 2999 ft | 201 kts | 303° |
| 2026-04-25 07:53 | 53.40462 | 15.27250 | 2667 ft | 196 kts | 303° |
| 2026-04-25 07:53 | 53.41190 | 15.25429 | 2499 ft | 183 kts | 303° |
| 2026-04-25 07:53 | 53.41883 | 15.23696 | 2187 ft | 181 kts | 303° |
| 2026-04-25 07:54 | 53.42583 | 15.21946 | 2063 ft | 182 kts | 303° |
| 2026-04-25 07:54 | 53.43281 | 15.20154 | 2059 ft | 184 kts | 299° |
| 2026-04-25 07:54 | 53.43991 | 15.18366 | 2072 ft | 186 kts | 304° |
| 2026-04-25 07:54 | 53.44795 | 15.16671 | 2059 ft | 186 kts | 307° |
| 2026-04-25 07:55 | 53.45632 | 15.15019 | 2063 ft | 186 kts | 309° |
| 2026-04-25 07:55 | 53.46475 | 15.13389 | 2038 ft | 183 kts | 308° |
| 2026-04-25 07:55 | 53.47304 | 15.11793 | 2031 ft | 181 kts | 308° |
| 2026-04-25 07:55 | 53.48129 | 15.10206 | 2010 ft | 180 kts | 308° |
| 2026-04-25 07:56 | 53.48952 | 15.08621 | 2012 ft | 180 kts | 308° |
| 2026-04-25 07:56 | 53.49764 | 15.07058 | 2013 ft | 180 kts | 308° |
| 2026-04-25 07:56 | 53.50588 | 15.05469 | 2012 ft | 180 kts | 307° |
| 2026-04-25 07:56 | 53.51412 | 15.03880 | 1986 ft | 180 kts | 308° |
| 2026-04-25 07:57 | 53.52205 | 15.02354 | 1817 ft | 168 kts | 307° |
| 2026-04-25 07:57 | 53.52948 | 15.00920 | 1601 ft | 157 kts | 307° |
| 2026-04-25 07:57 | 53.53634 | 14.99596 | 1412 ft | 141 kts | 308° |
| 2026-04-25 07:57 | 53.54254 | 14.98398 | 1222 ft | 132 kts | 307° |
| 2026-04-25 07:58 | 53.54847 | 14.97250 | 1056 ft | 129 kts | 306° |
| 2026-04-25 07:58 | 53.55464 | 14.96051 | 896 ft | 145 kts | 307° |
| 2026-04-25 07:58 | 53.56017 | 14.94982 | 719 ft | 135 kts | 307° |
| 2026-04-25 07:58 | 53.56605 | 14.93845 | 538 ft | 125 kts | 307° |
| 2026-04-25 07:59 | 53.57189 | 14.92721 | 389 ft | 130 kts | 307° |
| 2026-04-25 07:59 | 53.57781 | 14.91541 | 233 ft | 133 kts | 308° |
| 2026-04-25 07:59 | 53.58344 | 14.90454 | 153 ft | 108 kts | 308° |
| 2026-04-25 07:59 | 53.58724 | 14.89710 | 140 ft | 49 kts | 311° |
| 2026-04-25 08:00 | 53.58905 | 14.89349 | 139 ft | 38 kts | 311° |
| 2026-04-25 08:00 | 53.59011 | 14.89161 | 137 ft | 14 kts | 320° |
| 2026-04-25 08:00 | 53.59100 | 14.89147 | 135 ft | 12 kts | 41° |
| 2026-04-25 08:00 | 53.59136 | 14.89202 | 136 ft | 6 kts | 42° |
| 2026-04-25 08:01 | 53.59146 | 14.89216 | 136 ft | 1 kts | 42° |
| 2026-04-25 08:01 | 53.59149 | 14.89222 | 136 ft | 0 kts | 43° |
| 2026-04-25 08:01 | 53.59180 | 14.89271 | 135 ft | 11 kts | 43° |
| 2026-04-25 08:01 | 53.59237 | 14.89374 | 132 ft | 6 kts | 48° |
| 2026-04-25 08:02 | 53.59250 | 14.89396 | 127 ft | 0 kts | 48° |